Main page
METAR-TAF:

METAR-TAF

Airports :

Dubai International Airport

Dubai, United Arab Emirates

latitude: 25-15-10N, longitude: 055-21-52E, elevation: 8 m

Current weather observation

The report was made 20 minutes ago, at 21:00 UTC
Wind 4 kt from the South/Southeast
Temperature 32°C
Humidity 21%
Pressure 1005 hPa
Visibility 10 km or more
no clouds below 1500 m and no cumulonimbus

METAR: OMDB 202100Z 15004KT CAVOK 32/07 Q1005 NOSIG

Time: 01:20 (21:20 UTC)

Forecast

The report was made 4 hours and 29 minutes ago, at 16:51 UTC
Forecast valid from 20 at 18 UTC to 22 at 00 UTC
Wind 7 kt from the East/Southeast
Visibility 10 km or more
no clouds below 1500 m and no cumulonimbus
Becoming
from 21 at 03 UTC to 21 at 05 UTC
Wind 12 kt from the South
Becoming
from 21 at 08 UTC to 21 at 10 UTC
Wind 15 kt from the Northwest
Becoming
from 21 at 15 UTC to 21 at 17 UTC
Wind 7 kt from the East

TAF: OMDB 201651Z 2018/2200 12007KT CAVOK BECMG 2103/2105 19012KT BECMG 2108/2110 32015KT BECMG 2115/2117 09007KT

Weather observations and forecasts of more than 4000 airports (METAR and TAF reports).

The available stations are represented by yellow and red dots on the map.

Hover mouse over dot to see the name of the station.

Then click to see weather observations and forecasts.

To change the map : click on the green buttons with a black cross to zoom in, on the green button with a dash to zoom out, or on the green arrows for adjacent maps.


METAR-TAF: